Time;durP1;ratioP1;P1;durP2;ratioP2;P2;SDS_P1;SDS_P2;PMS_P1;PMS_P2;Temp;Humidity;BMP_temperature;BMP_pressure;BME280_temperature;BME280_humidity;BME280_pressure;Samples;Min_cycle;Max_cycle;Signal;HPM_P1;HPM_P2
2021/01/27 00:00:31;;;;;;;12.20;7.13;;;;;;;;;;5032498;28;20369;-76
2021/01/27 00:02:59;;;;;;;13.90;6.82;;;;;;;;;;5033602;28;20395;-76
2021/01/27 00:05:30;;;;;;;11.50;6.47;;;;;;;;;;5036413;28;20067;-76
2021/01/27 00:07:56;;;;;;;17.30;6.72;;;;;;;;;;5051955;28;20025;-76
2021/01/27 00:13:26;;;;;;;16.15;6.72;;;;;;;;;;5051895;28;20040;-76
2021/01/27 00:15:52;;;;;;;16.52;7.38;;;;;;;;;;5016769;28;20033;-76
2021/01/27 00:18:20;;;;;;;16.67;7.30;;;;;;;;;;5017042;28;20068;-76
2021/01/27 00:20:46;;;;;;;17.60;6.72;;;;;;;;;;5016722;28;20021;-75
2021/01/27 00:23:12;;;;;;;13.57;6.60;;;;;;;;;;5016911;28;20044;-76
2021/01/27 00:25:38;;;;;;;13.02;6.50;;;;;;;;;;5034511;28;20025;-76
2021/01/27 00:28:05;;;;;;;13.15;6.03;;;;;;;;;;5017915;28;20022;-76
2021/01/27 00:30:32;;;;;;;13.98;6.75;;;;;;;;;;5036229;28;20044;-76
2021/01/27 00:32:59;;;;;;;14.45;6.93;;;;;;;;;;5036199;28;20170;-76
2021/01/27 00:35:31;;;;;;;13.15;7.03;;;;;;;;;;5036631;28;20048;-76
2021/01/27 00:37:58;;;;;;;12.93;6.85;;;;;;;;;;5054140;28;20017;-76
2021/01/27 00:40:24;;;;;;;10.88;5.60;;;;;;;;;;5036235;28;20059;-76
2021/01/27 00:42:50;;;;;;;12.38;6.35;;;;;;;;;;5035874;28;20017;-76
2021/01/27 00:45:17;;;;;;;13.93;6.82;;;;;;;;;;5036192;28;20021;-76
2021/01/27 00:47:43;;;;;;;12.32;5.72;;;;;;;;;;5035919;28;20060;-76
2021/01/27 00:50:09;;;;;;;14.82;6.13;;;;;;;;;;5054154;28;20483;-76
2021/01/27 00:52:36;;;;;;;11.80;6.90;;;;;;;;;;5053519;28;20044;-76
2021/01/27 00:55:02;;;;;;;13.00;6.43;;;;;;;;;;5054058;28;20475;-77
2021/01/27 00:57:28;;;;;;;12.63;5.80;;;;;;;;;;5035985;28;20025;-76
2021/01/27 00:59:54;;;;;;;15.35;6.57;;;;;;;;;;5035614;28;20480;-76
2021/01/27 01:02:20;;;;;;;12.90;6.07;;;;;;;;;;5035925;28;20021;-76
2021/01/27 01:04:46;;;;;;;13.75;7.07;;;;;;;;;;5035688;28;20017;-76
2021/01/27 01:07:12;;;;;;;13.43;6.53;;;;;;;;;;5035827;28;20480;-76
2021/01/27 01:09:38;;;;;;;12.32;5.53;;;;;;;;;;5053914;28;20020;-76
2021/01/27 01:12:04;;;;;;;12.52;4.97;;;;;;;;;;5035702;28;20548;-77
2021/01/27 01:14:30;;;;;;;11.52;5.72;;;;;;;;;;5034805;28;20079;-76
2021/01/27 01:16:56;;;;;;;8.57;5.18;;;;;;;;;;5035388;28;20349;-76
2021/01/27 01:19:22;;;;;;;11.52;5.00;;;;;;;;;;5035761;28;20021;-76
2021/01/27 01:21:48;;;;;;;15.98;6.97;;;;;;;;;;5035463;28;20032;-76
2021/01/27 01:24:14;;;;;;;11.55;5.60;;;;;;;;;;5035432;28;20455;-77
2021/01/27 01:26:40;;;;;;;10.75;5.93;;;;;;;;;;5035644;28;20035;-77
2021/01/27 01:29:06;;;;;;;11.63;5.32;;;;;;;;;;5036401;28;20067;-77
2021/01/27 01:31:32;;;;;;;10.93;5.28;;;;;;;;;;5036200;28;20458;-76
2021/01/27 01:33:58;;;;;;;12.80;5.13;;;;;;;;;;5036138;28;20059;-76
2021/01/27 01:36:24;;;;;;;11.57;5.95;;;;;;;;;;5036355;28;20115;-77
2021/01/27 01:38:50;;;;;;;11.45;5.43;;;;;;;;;;5036102;28;20480;-76
2021/01/27 01:41:16;;;;;;;8.32;5.10;;;;;;;;;;5036178;28;20064;-77
2021/01/27 01:43:42;;;;;;;9.35;4.72;;;;;;;;;;5036048;28;20050;-76
2021/01/27 01:46:19;;;;;;;14.15;5.47;;;;;;;;;;5036165;28;20519;-76
2021/01/27 01:48:50;;;;;;;8.10;4.68;;;;;;;;;;5035988;28;20025;-76
2021/01/27 01:51:21;;;;;;;8.55;4.72;;;;;;;;;;5036121;28;20032;-75
2021/01/27 01:53:49;;;;;;;8.23;4.70;;;;;;;;;;5053716;28;20591;-76
2021/01/27 01:56:17;;;;;;;10.48;5.50;;;;;;;;;;5035904;28;20037;-75
2021/01/27 01:58:43;;;;;;;9.05;4.88;;;;;;;;;;5035734;28;20082;-75
2021/01/27 02:01:09;;;;;;;9.98;5.38;;;;;;;;;;5035951;28;20032;-76
2021/01/27 02:03:36;;;;;;;9.00;4.30;;;;;;;;;;5035932;28;20021;-76
2021/01/27 02:06:03;;;;;;;8.80;4.55;;;;;;;;;;5035522;28;20024;-76
2021/01/27 02:08:30;;;;;;;10.77;5.07;;;;;;;;;;5053689;28;20013;-76
2021/01/27 02:10:57;;;;;;;9.90;4.18;;;;;;;;;;5035390;28;20060;-76
2021/01/27 02:13:32;;;;;;;8.23;4.70;;;;;;;;;;5034167;28;20457;-76
2021/01/27 02:15:58;;;;;;;10.02;4.60;;;;;;;;;;5035330;28;20456;-76
2021/01/27 02:18:23;;;;;;;11.25;6.20;;;;;;;;;;5035647;28;20020;-76
2021/01/27 02:21:08;;;;;;;8.88;4.95;;;;;;;;;;5035317;28;20020;-76
2021/01/27 02:23:53;;;;;;;10.52;4.97;;;;;;;;;;5035476;28;20027;-76
2021/01/27 02:26:38;;;;;;;14.45;5.15;;;;;;;;;;5053048;28;20051;-76
2021/01/27 02:29:13;;;;;;;10.23;5.28;;;;;;;;;;5035033;28;20024;-75
2021/01/27 02:31:54;;;;;;;9.02;4.90;;;;;;;;;;5034793;28;20076;-76
2021/01/27 02:34:39;;;;;;;10.32;4.43;;;;;;;;;;5035152;28;20060;-76
2021/01/27 02:37:08;;;;;;;8.63;4.18;;;;;;;;;;5053128;28;20025;-76
2021/01/27 02:39:39;;;;;;;6.87;4.10;;;;;;;;;;5053060;28;20055;-76
2021/01/27 02:42:16;;;;;;;7.40;4.30;;;;;;;;;;5052782;28;20028;-76
2021/01/27 02:44:50;;;;;;;8.57;4.35;;;;;;;;;;5034880;28;20028;-76
2021/01/27 02:47:24;;;;;;;7.35;4.28;;;;;;;;;;5033797;28;20017;-76
2021/01/27 02:49:57;;;;;;;9.13;3.60;;;;;;;;;;5049203;28;20016;-76
2021/01/27 02:52:27;;;;;;;8.25;4.20;;;;;;;;;;5051151;28;20013;-76
2021/01/27 02:54:59;;;;;;;6.90;4.22;;;;;;;;;;5051126;28;20061;-76
2021/01/27 02:57:25;;;;;;;6.82;4.28;;;;;;;;;;5033388;28;20021;-76
2021/01/27 02:59:54;;;;;;;8.02;4.10;;;;;;;;;;5033198;28;20024;-76
2021/01/27 03:02:23;;;;;;;6.47;3.47;;;;;;;;;;5033375;28;20295;-76
2021/01/27 03:05:05;;;;;;;6.82;3.90;;;;;;;;;;5048721;28;20051;-76
2021/01/27 03:07:32;;;;;;;7.55;4.15;;;;;;;;;;5031042;28;20457;-76
2021/01/27 03:10:05;;;;;;;7.85;3.58;;;;;;;;;;5032902;28;20017;-76
2021/01/27 03:12:31;;;;;;;6.78;3.65;;;;;;;;;;5031021;28;20075;-76
2021/01/27 03:14:57;;;;;;;7.95;3.40;;;;;;;;;;5032884;28;20103;-75
2021/01/27 03:17:25;;;;;;;7.55;3.33;;;;;;;;;;5050955;28;20024;-75
2021/01/27 03:20:04;;;;;;;7.85;3.38;;;;;;;;;;5032935;28;20070;-75
2021/01/27 03:22:32;;;;;;;6.28;3.10;;;;;;;;;;5030798;28;20021;-75
2021/01/27 03:25:00;;;;;;;6.05;3.38;;;;;;;;;;5032673;28;20092;-75
2021/01/27 03:27:33;;;;;;;4.45;2.55;;;;;;;;;;5030303;28;20024;-75
2021/01/27 03:30:00;;;;;;;6.32;3.25;;;;;;;;;;5032508;28;20163;-75
2021/01/27 03:32:39;;;;;;;7.68;3.28;;;;;;;;;;5050793;28;20021;-75
2021/01/27 03:35:05;;;;;;;6.22;3.20;;;;;;;;;;5032636;28;20028;-75
2021/01/27 03:37:37;;;;;;;5.60;2.70;;;;;;;;;;5032279;28;20446;-75
2021/01/27 03:40:06;;;;;;;5.72;3.22;;;;;;;;;;5032549;28;20361;-76
2021/01/27 03:42:37;;;;;;;5.85;3.17;;;;;;;;;;5032810;28;20021;-76
2021/01/27 03:45:06;;;;;;;6.28;3.22;;;;;;;;;;5050270;28;20013;-76
2021/01/27 03:47:33;;;;;;;5.32;2.22;;;;;;;;;;5032584;28;20040;-76
2021/01/27 03:50:02;;;;;;;6.82;2.90;;;;;;;;;;5050599;28;20056;-76
2021/01/27 03:52:38;;;;;;;6.40;3.35;;;;;;;;;;5030257;28;20468;-76
2021/01/27 03:55:24;;;;;;;6.82;2.88;;;;;;;;;;5032507;28;20449;-76
2021/01/27 03:57:57;;;;;;;5.13;2.88;;;;;;;;;;5021819;28;20033;-75
2021/01/27 04:00:27;;;;;;;4.95;2.50;;;;;;;;;;5032545;28;20045;-75
2021/01/27 04:03:00;;;;;;;9.55;3.55;;;;;;;;;;5032379;28;20465;-76
2021/01/27 04:05:26;;;;;;;5.28;2.60;;;;;;;;;;5032434;28;20353;-76
2021/01/27 04:07:52;;;;;;;5.25;2.90;;;;;;;;;;5050227;28;20437;-75
2021/01/27 04:10:18;;;;;;;5.82;3.78;;;;;;;;;;5032351;28;20043;-74
2021/01/27 04:12:44;;;;;;;6.18;3.35;;;;;;;;;;5032208;28;20024;-75
2021/01/27 04:15:10;;;;;;;5.35;2.60;;;;;;;;;;5032476;28;20017;-75
2021/01/27 04:17:36;;;;;;;6.68;2.85;;;;;;;;;;5050113;28;20017;-75
2021/01/27 04:20:03;;;;;;;5.82;3.00;;;;;;;;;;5026054;28;20021;-76
2021/01/27 04:22:29;;;;;;;7.20;2.70;;;;;;;;;;5050296;28;20444;-76
2021/01/27 04:24:55;;;;;;;6.05;2.95;;;;;;;;;;5032156;28;20442;-76
2021/01/27 04:27:23;;;;;;;5.78;3.05;;;;;;;;;;5032193;28;20020;-76
2021/01/27 04:29:49;;;;;;;5.85;3.03;;;;;;;;;;5047273;28;20029;-76
2021/01/27 04:32:15;;;;;;;5.70;2.72;;;;;;;;;;5050156;28;20032;-76
2021/01/27 04:34:41;;;;;;;7.93;4.18;;;;;;;;;;5032358;28;20478;-76
2021/01/27 04:37:07;;;;;;;6.05;2.70;;;;;;;;;;5032838;28;20049;-76
2021/01/27 04:39:33;;;;;;;5.88;2.40;;;;;;;;;;5032818;28;20072;-75
2021/01/27 04:41:59;;;;;;;4.70;2.65;;;;;;;;;;5032483;28;20021;-75
2021/01/27 04:44:25;;;;;;;7.30;2.78;;;;;;;;;;5032681;28;20409;-76
2021/01/27 04:47:03;;;;;;;6.18;3.25;;;;;;;;;;5032326;28;20031;-75
2021/01/27 04:49:34;;;;;;;5.80;3.03;;;;;;;;;;5050597;28;20052;-75
2021/01/27 04:52:06;;;;;;;6.63;2.65;;;;;;;;;;5035895;28;20029;-76
2021/01/27 04:54:51;;;;;;;6.78;3.00;;;;;;;;;;5053814;28;20017;-76
2021/01/27 04:57:28;;;;;;;5.93;3.05;;;;;;;;;;5036165;28;20040;-76
2021/01/27 04:59:57;;;;;;;6.07;4.22;;;;;;;;;;5035748;28;20100;-75
2021/01/27 05:02:32;;;;;;;5.22;2.67;;;;;;;;;;5036085;28;20041;-76
2021/01/27 05:05:07;;;;;;;5.90;3.40;;;;;;;;;;5053589;28;20097;-76
2021/01/27 05:07:39;;;;;;;6.40;3.20;;;;;;;;;;5035691;28;20071;-75
2021/01/27 05:10:06;;;;;;;8.63;3.47;;;;;;;;;;5053310;28;20408;-75
2021/01/27 05:12:48;;;;;;;7.03;3.25;;;;;;;;;;5035738;28;20060;-76
2021/01/27 05:15:15;;;;;;;8.35;3.33;;;;;;;;;;5053432;28;20049;-76
2021/01/27 05:17:44;;;;;;;7.75;4.13;;;;;;;;;;5035561;28;20099;-76
2021/01/27 05:20:11;;;;;;;5.53;3.17;;;;;;;;;;5053623;28;20017;-75
2021/01/27 05:22:37;;;;;;;8.30;3.47;;;;;;;;;;5035539;28;20021;-76
2021/01/27 05:25:05;;;;;;;7.53;3.75;;;;;;;;;;5035408;28;20096;-76
2021/01/27 05:27:34;;;;;;;5.82;3.67;;;;;;;;;;5053491;28;20020;-76
2021/01/27 05:30:08;;;;;;;6.40;2.75;;;;;;;;;;5052529;28;20370;-76
2021/01/27 05:32:48;;;;;;;6.63;3.70;;;;;;;;;;5035347;28;20160;-76
2021/01/27 05:35:32;;;;;;;6.97;4.07;;;;;;;;;;5053486;28;20323;-75
2021/01/27 05:37:59;;;;;;;8.48;4.40;;;;;;;;;;5035083;28;20021;-76
2021/01/27 05:40:33;;;;;;;8.40;3.72;;;;;;;;;;5035153;28;20021;-75
2021/01/27 05:43:00;;;;;;;5.45;3.00;;;;;;;;;;5035034;28;20013;-76
2021/01/27 05:45:30;;;;;;;7.28;3.85;;;;;;;;;;5035220;28;20453;-75
2021/01/27 05:47:56;;;;;;;6.47;3.35;;;;;;;;;;5034777;28;20016;-76
2021/01/27 05:50:25;;;;;;;6.72;3.60;;;;;;;;;;5035027;28;20063;-75
2021/01/27 05:52:51;;;;;;;7.13;4.38;;;;;;;;;;5034885;28;20032;-76
2021/01/27 05:55:18;;;;;;;6.10;4.03;;;;;;;;;;5034956;28;20025;-76
2021/01/27 05:57:55;;;;;;;6.57;3.53;;;;;;;;;;5034797;28;20103;-76
2021/01/27 06:00:29;;;;;;;5.47;3.53;;;;;;;;;;5052508;28;20045;-76
2021/01/27 06:02:56;;;;;;;9.77;5.10;;;;;;;;;;5034640;28;20021;-76
2021/01/27 06:05:32;;;;;;;7.35;4.43;;;;;;;;;;5034866;28;20409;-76
2021/01/27 06:08:17;;;;;;;7.03;4.45;;;;;;;;;;5052551;28;20013;-76
2021/01/27 06:10:44;;;;;;;6.97;4.00;;;;;;;;;;5034442;28;20458;-76
2021/01/27 06:13:17;;;;;;;6.45;3.97;;;;;;;;;;5034736;28;20070;-75
2021/01/27 06:15:43;;;;;;;6.03;4.00;;;;;;;;;;5034135;28;20017;-76
2021/01/27 06:18:24;;;;;;;7.60;4.68;;;;;;;;;;5034557;28;20021;-75
2021/01/27 06:20:50;;;;;;;;;;;;;;;;;;5052585;28;20017;-75
2021/01/27 06:23:35;;;;;;;7.53;4.45;;;;;;;;;;5034562;28;19951;-76
2021/01/27 06:26:16;;;;;;;7.55;4.50;;;;;;;;;;5034048;28;20064;-76
2021/01/27 06:28:45;;;;;;;8.35;5.10;;;;;;;;;;5034039;28;20116;-76
2021/01/27 06:31:30;;;;;;;7.28;4.95;;;;;;;;;;5033851;28;20185;-76
2021/01/27 06:33:59;;;;;;;9.82;5.28;;;;;;;;;;5051999;28;20155;-76
2021/01/27 06:36:44;;;;;;;11.20;4.78;;;;;;;;;;5034324;28;20075;-76
2021/01/27 06:39:19;;;;;;;8.02;4.43;;;;;;;;;;5034240;28;20028;-76
2021/01/27 06:41:54;;;;;;;8.73;5.07;;;;;;;;;;5051824;28;20500;-75
2021/01/27 06:44:26;;;;;;;9.10;5.20;;;;;;;;;;5033965;28;20044;-75
2021/01/27 06:47:17;;;;;;;7.75;4.75;;;;;;;;;;5033605;28;20063;-76
2021/01/27 06:49:46;;;;;;;9.75;4.93;;;;;;;;;;5051634;28;20097;-76
2021/01/27 06:52:17;;;;;;;9.88;5.70;;;;;;;;;;5033690;28;20025;-76
2021/01/27 06:54:49;;;;;;;7.82;5.07;;;;;;;;;;5033543;28;20021;-76
2021/01/27 06:57:23;;;;;;;7.13;5.13;;;;;;;;;;5051793;28;20104;-75
2021/01/27 07:00:08;;;;;;;9.20;5.82;;;;;;;;;;5033551;28;20599;-76
2021/01/27 07:02:46;;;;;;;9.40;5.60;;;;;;;;;;5033620;28;20021;-75
2021/01/27 07:05:18;;;;;;;9.57;6.45;;;;;;;;;;5033407;28;20457;-76
2021/01/27 07:07:55;;;;;;;9.80;6.22;;;;;;;;;;5051134;28;20499;-76
2021/01/27 07:10:27;;;;;;;8.68;6.07;;;;;;;;;;5033233;28;20059;-76
2021/01/27 07:13:03;;;;;;;11.20;6.68;;;;;;;;;;5050332;28;20465;-75
2021/01/27 07:15:33;;;;;;;8.18;5.57;;;;;;;;;;5051718;28;20017;-75
2021/01/27 07:18:18;;;;;;;11.60;8.07;;;;;;;;;;5033094;28;20082;-76
2021/01/27 07:20:54;;;;;;;8.52;6.30;;;;;;;;;;5033213;28;20469;-76
2021/01/27 07:23:29;;;;;;;8.65;6.28;;;;;;;;;;5051106;28;20020;-76
2021/01/27 07:25:59;;;;;;;9.88;7.00;;;;;;;;;;5033071;28;20017;-76
2021/01/27 07:28:25;;;;;;;11.25;7.30;;;;;;;;;;5033104;28;20020;-76
2021/01/27 07:30:51;;;;;;;10.45;7.13;;;;;;;;;;5032633;28;20501;-76
2021/01/27 07:33:25;;;;;;;9.52;6.63;;;;;;;;;;5033521;28;20448;-76
2021/01/27 07:36:13;;;;;;;9.38;6.65;;;;;;;;;;5050671;28;20588;-76
2021/01/27 07:38:40;;;;;;;11.35;7.60;;;;;;;;;;5032987;28;20419;-77
2021/01/27 07:41:08;;;;;;;10.60;7.60;;;;;;;;;;5032687;28;20384;-76
2021/01/27 07:43:48;;;;;;;11.40;7.63;;;;;;;;;;5033093;28;20025;-77
2021/01/27 07:46:16;;;;;;;8.30;6.35;;;;;;;;;;5050956;28;20028;-76
2021/01/27 07:48:46;;;;;;;10.68;7.32;;;;;;;;;;5032936;28;20040;-76
2021/01/27 07:51:15;;;;;;;9.75;6.78;;;;;;;;;;5032865;28;20118;-76
2021/01/27 07:53:58;;;;;;;9.00;7.05;;;;;;;;;;5032868;28;20019;-76
2021/01/27 07:56:36;;;;;;;9.50;6.38;;;;;;;;;;5031221;28;20037;-76
2021/01/27 07:59:08;;;;;;;9.63;6.88;;;;;;;;;;5012795;28;20469;-76
2021/01/27 08:01:44;;;;;;;12.23;7.75;;;;;;;;;;5013135;28;20116;-75
2021/01/27 08:04:23;;;;;;;11.18;8.10;;;;;;;;;;5012947;28;20064;-76
2021/01/27 08:06:52;;;;;;;13.85;8.82;;;;;;;;;;5027998;28;20354;-76
2021/01/27 08:09:30;;;;;;;11.45;9.68;;;;;;;;;;5051287;28;20021;-76
2021/01/27 08:12:11;;;;;;;13.23;9.48;;;;;;;;;;5033373;28;20492;-76
2021/01/27 08:14:56;;;;;;;12.15;8.90;;;;;;;;;;5051791;28;20025;-77
2021/01/27 08:17:40;;;;;;;11.98;8.02;;;;;;;;;;5051677;28;20043;-77
2021/01/27 08:20:25;;;;;;;11.90;9.15;;;;;;;;;;5051013;28;20082;-76
2021/01/27 08:22:52;;;;;;;12.13;9.35;;;;;;;;;;5033252;28;20466;-76
2021/01/27 08:25:37;;;;;;;12.50;9.23;;;;;;;;;;5036881;28;20029;-76
2021/01/27 08:28:16;;;;;;;10.77;8.60;;;;;;;;;;5036211;28;20031;-76
2021/01/27 08:30:42;;;;;;;11.17;8.67;;;;;;;;;;5037042;28;20147;-76
2021/01/27 08:33:27;;;;;;;10.98;7.65;;;;;;;;;;5055154;28;20029;-76
2021/01/27 08:35:53;;;;;;;13.77;10.57;;;;;;;;;;5037181;28;20013;-77
2021/01/27 08:38:27;;;;;;;11.05;8.00;;;;;;;;;;5037464;28;20331;-77
2021/01/27 08:40:53;;;;;;;11.23;8.25;;;;;;;;;;5037111;28;20067;-76
2021/01/27 08:43:19;;;;;;;12.07;9.00;;;;;;;;;;5037363;28;20040;-76
2021/01/27 08:45:46;;;;;;;11.98;8.82;;;;;;;;;;5036909;28;20064;-77
2021/01/27 08:48:14;;;;;;;12.10;8.95;;;;;;;;;;5037104;28;20029;-77
2021/01/27 08:50:43;;;;;;;10.27;7.75;;;;;;;;;;5055128;28;20013;-76
2021/01/27 08:53:14;;;;;;;11.85;9.25;;;;;;;;;;5036904;28;20462;-75
2021/01/27 08:55:46;;;;;;;11.85;8.45;;;;;;;;;;5037025;28;20357;-75
2021/01/27 08:58:19;;;;;;;11.45;8.32;;;;;;;;;;5036911;28;20025;-76
2021/01/27 09:00:46;;;;;;;10.80;6.72;;;;;;;;;;5036981;28;20120;-79
2021/01/27 09:03:30;;;;;;;9.75;7.63;;;;;;;;;;5037071;28;20017;-78
2021/01/27 09:05:57;;;;;;;10.13;7.97;;;;;;;;;;5034691;28;20412;-79
2021/01/27 09:08:23;;;;;;;9.98;7.80;;;;;;;;;;5040252;28;20025;-78
2021/01/27 09:11:15;;;;;;;10.25;6.97;;;;;;;;;;5030735;28;20033;-78
2021/01/27 09:14:06;;;;;;;9.57;7.13;;;;;;;;;;5037909;28;20029;-78
2021/01/27 09:16:57;;;;;;;9.35;6.82;;;;;;;;;;5028361;28;20052;-77
2021/01/27 09:19:48;;;;;;;9.70;6.70;;;;;;;;;;5024588;28;20025;-80
2021/01/27 09:22:39;;;;;;;10.80;7.05;;;;;;;;;;5052537;28;20031;-80
2021/01/27 09:25:30;;;;;;;10.85;8.07;;;;;;;;;;5037301;28;20040;-79
2021/01/27 09:28:01;;;;;;;11.38;7.45;;;;;;;;;;5024820;28;20472;-78
2021/01/27 09:59:29;;;;;;;12.80;9.27;;;;;;;;;;5033768;28;20103;-77
2021/01/27 10:01:55;;;;;;;14.48;10.48;;;;;;;;;;5016123;28;20068;-77
2021/01/27 10:04:40;;;;;;;15.15;11.43;;;;;;;;;;5035027;28;20084;-79
2021/01/27 10:07:15;;;;;;;14.80;10.68;;;;;;;;;;5034389;28;20024;-77
2021/01/27 10:09:49;;;;;;;14.68;11.48;;;;;;;;;;5016440;28;20031;-78
2021/01/27 10:12:20;;;;;;;16.85;12.57;;;;;;;;;;5016322;28;20029;-78
2021/01/27 10:14:47;;;;;;;13.75;9.68;;;;;;;;;;5016986;28;20051;-78
2021/01/27 10:17:13;;;;;;;17.15;12.68;;;;;;;;;;5016739;28;20049;-75
2021/01/27 10:19:47;;;;;;;17.77;13.30;;;;;;;;;;5033962;28;20013;-78
2021/01/27 10:22:13;;;;;;;15.45;10.65;;;;;;;;;;5016268;28;20057;-78
2021/01/27 10:24:46;;;;;;;16.50;12.68;;;;;;;;;;5016053;28;20070;-77
2021/01/27 10:27:21;;;;;;;17.45;13.20;;;;;;;;;;5016371;28;20021;-78
2021/01/27 10:29:47;;;;;;;16.88;11.80;;;;;;;;;;5046211;28;20024;-79
2021/01/27 10:32:19;;;;;;;19.40;13.55;;;;;;;;;;5034819;28;20036;-79
2021/01/27 10:34:46;;;;;;;16.80;11.80;;;;;;;;;;5035356;28;20506;-78
2021/01/27 10:37:32;;;;;;;18.27;13.98;;;;;;;;;;5031643;28;20049;-79
2021/01/27 10:40:14;;;;;;;18.15;12.88;;;;;;;;;;5032634;28;20022;-79
2021/01/27 10:42:44;;;;;;;18.38;14.00;;;;;;;;;;5033583;28;20025;-79
2021/01/27 10:45:16;;;;;;;18.98;13.10;;;;;;;;;;5033160;28;20017;-80
2021/01/27 10:47:43;;;;;;;22.48;16.08;;;;;;;;;;5032279;28;20104;-77
2021/01/27 10:50:10;;;;;;;22.45;16.75;;;;;;;;;;5032923;28;20021;-77
2021/01/27 10:52:36;;;;;;;35.13;22.55;;;;;;;;;;5032361;28;20036;-79
2021/01/27 10:55:06;;;;;;;15.15;9.90;;;;;;;;;;5033838;28;20022;-81
2021/01/27 10:57:32;;;;;;;18.85;14.05;;;;;;;;;;5033148;28;20017;-82
2021/01/27 10:59:58;;;;;;;18.38;13.60;;;;;;;;;;5033002;28;20087;-81
2021/01/27 11:02:26;;;;;;;20.45;15.90;;;;;;;;;;5032051;28;20063;-79
2021/01/27 11:04:52;;;;;;;23.10;16.75;;;;;;;;;;5032212;28;20032;-78
2021/01/27 11:07:18;;;;;;;23.50;17.10;;;;;;;;;;5032594;28;20021;-78
2021/01/27 11:09:48;;;;;;;23.80;16.55;;;;;;;;;;5032485;28;20029;-79
2021/01/27 11:12:14;;;;;;;23.90;16.60;;;;;;;;;;5033396;28;20021;-79
2021/01/27 11:14:40;;;;;;;19.95;14.02;;;;;;;;;;5032176;28;20052;-79
2021/01/27 11:17:06;;;;;;;22.77;16.35;;;;;;;;;;5032138;28;20021;-79
2021/01/27 11:19:32;;;;;;;26.90;19.00;;;;;;;;;;5031518;28;20060;-79
2021/01/27 11:21:58;;;;;;;29.88;19.75;;;;;;;;;;5032915;28;20022;-78
2021/01/27 11:24:24;;;;;;;24.60;17.73;;;;;;;;;;5033055;28;20410;-79
2021/01/27 11:26:50;;;;;;;22.10;16.45;;;;;;;;;;5031191;28;20023;-78
2021/01/27 11:29:16;;;;;;;26.77;18.45;;;;;;;;;;5031889;28;20017;-78
2021/01/27 11:31:42;;;;;;;30.77;21.95;;;;;;;;;;5032306;28;20172;-79
2021/01/27 11:34:08;;;;;;;23.40;16.50;;;;;;;;;;5031248;28;20017;-79
2021/01/27 11:36:34;;;;;;;26.13;18.75;;;;;;;;;;5031533;28;20029;-78
2021/01/27 11:39:00;;;;;;;27.92;19.27;;;;;;;;;;5031940;28;20099;-81
2021/01/27 11:41:26;;;;;;;25.70;18.77;;;;;;;;;;5032803;28;20060;-81
2021/01/27 11:43:52;;;;;;;28.63;18.75;;;;;;;;;;5033482;28;20022;-80
2021/01/27 11:46:19;;;;;;;29.67;19.80;;;;;;;;;;5033662;28;20465;-78
2021/01/27 11:48:45;;;;;;;27.20;19.65;;;;;;;;;;5030677;28;20022;-77
2021/01/27 11:51:12;;;;;;;19.95;13.32;;;;;;;;;;5031412;28;20120;-78
2021/01/27 11:53:39;;;;;;;28.73;19.23;;;;;;;;;;5031762;28;20049;-78
2021/01/27 11:56:05;;;;;;;28.52;19.42;;;;;;;;;;5031213;28;20022;-77
2021/01/27 11:58:31;;;;;;;30.27;19.98;;;;;;;;;;5031099;28;20052;-79
2021/01/27 12:00:59;;;;;;;29.75;20.85;;;;;;;;;;5036711;28;20079;-82
2021/01/27 12:03:24;;;;;;;29.75;20.75;;;;;;;;;;5037560;28;20109;-82
2021/01/27 12:05:51;;;;;;;24.92;16.30;;;;;;;;;;5035759;28;20049;-79
2021/01/27 12:08:17;;;;;;;31.27;21.02;;;;;;;;;;5035998;28;20428;-80
2021/01/27 12:10:43;;;;;;;35.47;23.20;;;;;;;;;;5035922;28;20021;-79
2021/01/27 12:13:09;;;;;;;35.22;24.00;;;;;;;;;;5034209;28;20021;-80
2021/01/27 12:15:35;;;;;;;41.35;24.95;;;;;;;;;;5035429;28;20373;-80
2021/01/27 12:18:01;;;;;;;35.83;23.63;;;;;;;;;;5034014;28;20022;-82
2021/01/27 12:20:27;;;;;;;33.05;22.20;;;;;;;;;;5036007;28;20020;-78
2021/01/27 12:22:54;;;;;;;39.30;25.48;;;;;;;;;;5033885;28;20018;-79
2021/01/27 12:25:20;;;;;;;40.30;24.17;;;;;;;;;;5034744;28;20027;-80
2021/01/27 12:27:46;;;;;;;40.80;25.95;;;;;;;;;;5035132;28;20053;-80
2021/01/27 12:30:12;;;;;;;36.70;24.42;;;;;;;;;;5034623;28;20045;-79
2021/01/27 12:32:41;;;;;;;34.30;22.42;;;;;;;;;;5035272;28;20065;-81
2021/01/27 12:35:07;;;;;;;44.47;27.85;;;;;;;;;;5033530;28;20120;-78
2021/01/27 12:37:33;;;;;;;32.40;19.83;;;;;;;;;;5032964;28;20455;-80
2021/01/27 12:39:59;;;;;;;37.95;23.70;;;;;;;;;;5033443;28;20022;-79
2021/01/27 12:42:25;;;;;;;41.00;25.75;;;;;;;;;;5033810;28;20064;-81
2021/01/27 12:44:51;;;;;;;35.65;23.98;;;;;;;;;;5033716;28;20021;-80
2021/01/27 12:47:22;;;;;;;39.55;25.08;;;;;;;;;;5033294;28;20017;-80
2021/01/27 12:49:48;;;;;;;41.85;25.90;;;;;;;;;;5035487;28;20014;-80
2021/01/27 12:52:14;;;;;;;35.80;22.88;;;;;;;;;;5033430;28;20454;-80
2021/01/27 12:54:40;;;;;;;36.00;22.23;;;;;;;;;;5033665;28;20111;-80
2021/01/27 12:57:06;;;;;;;34.55;23.83;;;;;;;;;;5033570;28;20088;-80
2021/01/27 12:59:32;;;;;;;41.97;26.00;;;;;;;;;;5033571;28;20335;-79
2021/01/27 13:01:58;;;;;;;45.92;27.63;;;;;;;;;;5034533;28;20068;-78
2021/01/27 13:04:25;;;;;;;35.50;22.33;;;;;;;;;;5034556;28;20107;-78
2021/01/27 13:06:51;;;;;;;40.25;25.65;;;;;;;;;;5034908;28;20397;-78
2021/01/27 13:09:17;;;;;;;41.47;25.52;;;;;;;;;;5033500;28;20022;-78
2021/01/27 13:11:43;;;;;;;32.40;19.83;;;;;;;;;;5033681;28;20450;-79
2021/01/27 13:14:10;;;;;;;37.13;23.70;;;;;;;;;;5033221;28;20021;-78
2021/01/27 13:16:37;;;;;;;35.63;24.90;;;;;;;;;;5033405;28;20523;-79
2021/01/27 13:19:03;;;;;;;38.88;25.92;;;;;;;;;;5033026;28;20013;-79
2021/01/27 13:21:30;;;;;;;42.13;25.55;;;;;;;;;;5035030;28;20029;-78
2021/01/27 13:23:56;;;;;;;39.55;24.95;;;;;;;;;;5033044;28;20072;-78
2021/01/27 13:26:22;;;;;;;43.00;26.02;;;;;;;;;;5033349;28;20466;-78
2021/01/27 13:28:48;;;;;;;41.85;24.90;;;;;;;;;;5032918;28;20028;-78
2021/01/27 13:31:14;;;;;;;40.40;25.10;;;;;;;;;;5032872;28;20059;-78
2021/01/27 13:33:40;;;;;;;37.45;25.30;;;;;;;;;;5033079;28;20013;-78
2021/01/27 13:36:07;;;;;;;30.88;19.27;;;;;;;;;;5032746;28;20412;-78
2021/01/27 13:38:35;;;;;;;36.95;22.80;;;;;;;;;;5049714;28;20377;-77
2021/01/27 13:41:01;;;;;;;30.77;21.42;;;;;;;;;;5053818;28;20043;-78
2021/01/27 13:43:27;;;;;;;38.25;24.42;;;;;;;;;;5035887;28;20439;-78
2021/01/27 13:45:53;;;;;;;40.28;25.13;;;;;;;;;;5036231;28;20023;-78
2021/01/27 13:48:19;;;;;;;43.60;24.65;;;;;;;;;;5054233;28;20021;-78
2021/01/27 13:50:45;;;;;;;43.97;26.33;;;;;;;;;;5036095;28;20110;-78
2021/01/27 13:53:11;;;;;;;50.35;30.98;;;;;;;;;;5035827;28;20044;-78
2021/01/27 13:55:37;;;;;;;38.53;23.90;;;;;;;;;;5036149;28;20052;-78
2021/01/27 13:58:03;;;;;;;30.90;20.58;;;;;;;;;;5035965;28;20460;-78
2021/01/27 14:00:29;;;;;;;38.38;23.17;;;;;;;;;;5036106;28;20021;-78
2021/01/27 14:02:55;;;;;;;41.78;26.17;;;;;;;;;;5035722;28;20020;-78
2021/01/27 14:05:23;;;;;;;38.55;23.33;;;;;;;;;;5053990;28;20009;-78
2021/01/27 14:07:50;;;;;;;42.03;25.88;;;;;;;;;;5035716;28;20420;-78
2021/01/27 14:10:17;;;;;;;37.47;22.17;;;;;;;;;;5035563;28;20056;-78
2021/01/27 14:12:43;;;;;;;48.80;28.80;;;;;;;;;;5035173;28;20041;-78
2021/01/27 14:15:10;;;;;;;46.00;26.75;;;;;;;;;;5034822;28;20025;-78
2021/01/27 14:17:36;;;;;;;44.72;27.60;;;;;;;;;;5035525;28;20365;-77
2021/01/27 14:20:02;;;;;;;55.95;30.13;;;;;;;;;;5035078;28;20013;-78
2021/01/27 14:22:29;;;;;;;47.22;27.65;;;;;;;;;;5053370;28;20032;-78
2021/01/27 14:24:55;;;;;;;42.03;25.35;;;;;;;;;;5035443;28;20021;-79
2021/01/27 14:27:21;;;;;;;37.42;24.17;;;;;;;;;;5035191;28;20468;-78
2021/01/27 14:29:48;;;;;;;43.85;25.85;;;;;;;;;;5053017;28;20114;-78
2021/01/27 14:32:14;;;;;;;47.55;27.67;;;;;;;;;;5035015;28;20025;-78
2021/01/27 14:34:40;;;;;;;41.20;24.67;;;;;;;;;;5035255;28;20044;-79
2021/01/27 14:37:06;;;;;;;50.70;27.55;;;;;;;;;;5034816;28;20457;-79
2021/01/27 14:39:32;;;;;;;47.30;25.52;;;;;;;;;;5035301;28;20024;-79
2021/01/27 14:41:58;;;;;;;82.97;48.53;;;;;;;;;;5052894;28;20017;-78
2021/01/27 14:44:24;;;;;;;40.03;23.27;;;;;;;;;;5052645;28;20016;-79
2021/01/27 14:46:51;;;;;;;45.72;24.60;;;;;;;;;;5034329;28;20017;-79
2021/01/27 14:49:17;;;;;;;49.08;26.58;;;;;;;;;;5034152;28;20085;-79
2021/01/27 14:51:44;;;;;;;43.10;24.45;;;;;;;;;;5034281;28;20056;-78
2021/01/27 14:54:10;;;;;;;40.20;24.20;;;;;;;;;;5034022;28;20027;-79
2021/01/27 14:56:36;;;;;;;44.03;24.77;;;;;;;;;;5034337;28;20099;-78
2021/01/27 14:59:02;;;;;;;54.40;26.80;;;;;;;;;;5034036;28;20029;-77
2021/01/27 15:01:28;;;;;;;36.95;18.17;;;;;;;;;;5034329;28;20319;-78
2021/01/27 15:03:54;;;;;;;42.00;24.63;;;;;;;;;;5051842;28;20048;-78
2021/01/27 15:06:20;;;;;;;43.85;24.40;;;;;;;;;;5052078;28;20013;-78
2021/01/27 15:08:48;;;;;;;47.35;26.20;;;;;;;;;;5033773;28;20040;-78
2021/01/27 15:11:14;;;;;;;49.05;26.63;;;;;;;;;;5051772;28;20067;-77
2021/01/27 15:13:40;;;;;;;41.80;24.98;;;;;;;;;;5033920;28;20025;-77
2021/01/27 15:16:06;;;;;;;46.33;25.63;;;;;;;;;;5033764;28;20338;-78
2021/01/27 15:18:32;;;;;;;44.95;25.35;;;;;;;;;;5033837;28;20354;-78